Главная страница
METAR-TAF:

METAR-TAF

Аэропорты :

Сундсвалль-Härnösand, Швеция

широта: 62-32N, долгота: 017-27E, высота над уровнем моря: 4 м

Текущие метеонаблюдения

Эта сводка был подготовлена 37 минут назад, в 12:50 UTC
Ветер 11 Узел от юго-юго-восточный
Температура 22°C
Влажность 41%
Давление 1012 hPa
Видимость 10 км и более
Нет облачности ниже 1500 м, и нет кучево-дождевой облачности

METAR: ESNN 301250Z 15011KT CAVOK 22/08 Q1012

Время: 15:27 (13:27 UTC)

Прогноз

Эта сводка был подготовлена 1 час и 57 минут назад, в 11:30 UTC
Прогноз действительный с 30-го 12 UTC до 30-го 21 UTC
Ветер 10 Узел от юго-юго-восточный
Видимость 10 км и более
Нет облачности ниже 1500 м, и нет кучево-дождевой облачности
изменения
С 30-го 19 UTC до 30-го 21 UTC
Ветер 3 Узел от восточный

TAF: ESNN 301130Z 3012/3021 16010KT CAVOK BECMG 3019/3021 09003KT

Метеонаблюдения и прогнозы для более 4000 аэропортов (сводки METAR и TAF).

Имеющиеся станции представлены на карте желтыми и красными точками.

Чтобы увидеть название станции, наведите на нее мышь.

Затем щелкните, чтобы увидеть метеонаблюдения и метеопрогнозы.

Управление картой: чтобы увеличить масштаб, щелкните зеленые кнопки с черным крестиком; чтобы уменьшить масштаб, щелкните зеленую кнопку с тире; для просмотра соседних карт щелкайте зеленые стрелки.


METAR-TAF: